Wilson Clyde — 8PRV — position and weather

sailwx.info

Track history (hours):
 
Tides and Currents Weather Stations Pressure Air Temp Water Temp Dewpoint Dewpoint Depression Visibility Wind Speed Wind Dir Waves Ship Positions

Wilson Clyde

Last reported at 2015-Mar-27 11:33 UTC. Time now 2015-Mar-27 12:01 UTC.
Position N 66°16' E 012°22'.

Length 100 m; draft 4.3 m.

Type: Ship. MMSI: 314187000.

Date/timePositionNaut miles runAvg speedWind from/ knotsBaromVisibWave heightAir tempDewpointWater temp
2015-Mar-27 11:33N 66°16' E 012°22'17110.6
2015-Mar-26 19:24N 63°44' E 009°16'  
2015-Mar-22 16:33N 59°17' W 004°13'10 9.8
2015-Mar-22 15:34N 59°09' W 004°26'1010.2
2015-Mar-22 14:33N 59°01' W 004°38'203 9.7
2015-Mar-21 17:33N 55°50' W 006°48'1111.3
2015-Mar-21 16:33N 55°41' W 006°36'1313.1
2015-Mar-21 15:33N 55°31' W 006°22'1313.3
2015-Mar-21 14:33N 55°24' W 006°02'3314.3
2015-Mar-21 12:16N 54°57' W 005°29'811.2
2015-Mar-21 11:32N 54°50' W 005°21'10 9.8
2015-Mar-21 10:33N 54°41' W 005°16'9 9.1
2015-Mar-21 09:33N 54°32' W 005°14'10 9.6
2015-Mar-21 08:33N 54°22' W 005°11'1010.1
2015-Mar-21 07:33N 54°12' W 005°14'37210.0
2015-Mar-19 18:21N 48°01' W 005°06'7 8.9
2015-Mar-19 17:33N 47°56' W 004°59'8910.6
2015-Mar-19 09:09N 46°56' W 003°21'610.4
2015-Mar-19 08:33N 46°52' W 003°14'5210.4
2015-Mar-19 03:29N 46°16' W 002°18'1510.7
2015-Mar-19 02:07N 46°06' W 002°03'  
Track history (hours):
 
Tides and Currents Weather Stations Pressure Air Temp Water Temp Dewpoint Dewpoint Depression Visibility Wind Speed Wind Dir Waves Ship Positions

Wilson Clyde

Last reported at 2015-Mar-27 11:33 UTC. Time now 2015-Mar-27 12:01 UTC.
Position N 66°16' E 012°22'.

Length 100 m; draft 4.3 m.

Type: Ship. MMSI: 314187000.

Date/timePositionNaut miles runAvg speedWind from/ knotsBaromVisibWave heightAir tempDewpointWater temp
2015-Mar-27 11:33N 66°16' E 012°22'17110.6
2015-Mar-26 19:24N 63°44' E 009°16'  
2015-Mar-22 16:33N 59°17' W 004°13'10 9.8
2015-Mar-22 15:34N 59°09' W 004°26'1010.2
2015-Mar-22 14:33N 59°01' W 004°38'203 9.7
2015-Mar-21 17:33N 55°50' W 006°48'1111.3
2015-Mar-21 16:33N 55°41' W 006°36'1313.1
2015-Mar-21 15:33N 55°31' W 006°22'1313.3
2015-Mar-21 14:33N 55°24' W 006°02'3314.3
2015-Mar-21 12:16N 54°57' W 005°29'811.2
2015-Mar-21 11:32N 54°50' W 005°21'10 9.8
2015-Mar-21 10:33N 54°41' W 005°16'9 9.1
2015-Mar-21 09:33N 54°32' W 005°14'10 9.6
2015-Mar-21 08:33N 54°22' W 005°11'1010.1
2015-Mar-21 07:33N 54°12' W 005°14'37210.0
2015-Mar-19 18:21N 48°01' W 005°06'7 8.9
2015-Mar-19 17:33N 47°56' W 004°59'8910.6
2015-Mar-19 09:09N 46°56' W 003°21'610.4
2015-Mar-19 08:33N 46°52' W 003°14'5210.4
2015-Mar-19 03:29N 46°16' W 002°18'1510.7
2015-Mar-19 02:07N 46°06' W 002°03'  

Dump ship's entire track history